Laurel, Montana
Current Conditions -  °F | °C
As of 11:53 AM on Thursday 23 Oct 2014 (Local Time) from KBIL Reporting Station
Broken Clouds Broken Clouds  
Wind Chill: 64°   Ceiling: 20000
Heat Index: 64°   Visibility: 10mi
Dew Point: 27°   Wind: 13mph
Humidity: 25%   Direction: 230°SW
Pressure: 29.9"   Gusts: NA
Location:  45.67°N, 108.77°W
Report Text: KBIL 231753Z 23011KT 10SM FEW090 BKN200 18/M03 A2990 RMK AO2 SLP114 ACSL ALQDS T01781028 10178 20094 53001
Loading
Personal Weather Stations






























Interactive Weather Map
Tropical Storm Tracking
New forecast layout! Learn more

10-Day Weather Forecast

Advertisements
Track Severe Weather on mobile